createdAt,value
2023-05-12T00:00:59.234Z,4.40
2023-05-12T00:03:27.988Z,4.30
2023-05-12T00:06:03.590Z,4.53
2023-05-12T00:08:32.564Z,4.23
2023-05-12T00:11:03.482Z,4.37
2023-05-12T00:13:32.626Z,3.83
2023-05-12T00:16:01.716Z,3.97
2023-05-12T00:18:30.289Z,4.23
2023-05-12T00:21:00.281Z,4.30
2023-05-12T00:23:28.581Z,3.93
2023-05-12T00:25:57.246Z,4.13
2023-05-12T00:28:25.619Z,3.83
2023-05-12T00:30:54.105Z,4.43
2023-05-12T00:33:22.663Z,4.03
2023-05-12T00:35:50.933Z,4.07
2023-05-12T00:38:20.767Z,4.13
2023-05-12T00:40:49.227Z,4.20
2023-05-12T00:43:17.640Z,3.60
2023-05-12T00:45:46.138Z,3.77
2023-05-12T00:48:15.554Z,3.53
2023-05-12T00:50:44.283Z,3.23
2023-05-12T00:53:13.651Z,3.43
2023-05-12T00:55:43.803Z,2.87
2023-05-12T00:58:12.290Z,2.90
2023-05-12T01:00:41.287Z,2.30
2023-05-12T01:03:10.348Z,2.10
2023-05-12T01:05:49.013Z,2.47
2023-05-12T01:08:19.111Z,2.33
2023-05-12T01:10:49.344Z,2.20
2023-05-12T01:13:19.342Z,2.10
2023-05-12T01:15:51.133Z,1.77
2023-05-12T01:18:21.690Z,1.53
2023-05-12T01:20:51.422Z,1.87
2023-05-12T01:23:21.512Z,1.70
2023-05-12T01:25:52.513Z,1.87
2023-05-12T01:28:23.129Z,1.70
2023-05-12T01:30:52.365Z,1.60
2023-05-12T01:33:21.051Z,1.50
2023-05-12T01:35:49.402Z,1.50
2023-05-12T01:38:18.734Z,1.47
2023-05-12T01:40:47.630Z,1.43
2023-05-12T01:43:16.826Z,1.20
2023-05-12T01:45:46.894Z,1.20
2023-05-12T01:48:15.375Z,1.27
2023-05-12T01:50:44.329Z,1.60
2023-05-12T01:53:17.771Z,1.53
2023-05-12T01:55:46.177Z,1.37
2023-05-12T01:58:14.973Z,1.23
2023-05-12T02:00:43.554Z,1.30
2023-05-12T02:03:17.794Z,1.30
2023-05-12T02:05:46.222Z,1.50
2023-05-12T02:08:14.737Z,1.20
2023-05-12T02:10:43.012Z,1.20
2023-05-12T02:13:11.842Z,1.30
2023-05-12T02:15:40.387Z,0.90
2023-05-12T02:18:09.070Z,1.07
2023-05-12T02:20:38.927Z,1.07
2023-05-12T02:23:07.430Z,0.80
2023-05-12T02:25:35.836Z,0.97
2023-05-12T02:28:04.833Z,0.87
2023-05-12T02:30:33.308Z,0.90
2023-05-12T02:33:01.832Z,0.90
2023-05-12T02:35:30.607Z,0.70
2023-05-12T02:38:00.614Z,0.80
2023-05-12T02:40:29.202Z,0.80
2023-05-12T02:42:58.593Z,0.87
2023-05-12T02:45:27.041Z,1.17
2023-05-12T02:47:55.991Z,1.10
2023-05-12T02:50:24.880Z,1.33
2023-05-12T02:52:53.443Z,1.27
2023-05-12T02:55:23.455Z,1.07
2023-05-12T02:57:52.137Z,1.40
2023-05-12T03:00:20.679Z,1.60
2023-05-12T03:02:49.641Z,1.70
2023-05-12T03:05:18.165Z,1.90
2023-05-12T03:07:49.356Z,1.67
2023-05-12T03:10:19.201Z,1.87
2023-05-12T03:12:49.871Z,1.50
2023-05-12T03:15:18.450Z,1.70
2023-05-12T03:17:47.190Z,1.57
2023-05-12T03:20:20.275Z,1.70
2023-05-12T03:22:49.110Z,1.70
2023-05-12T03:25:17.838Z,1.90
2023-05-12T03:27:46.509Z,1.70
2023-05-12T03:30:17.001Z,2.10
2023-05-12T03:32:46.346Z,1.90
2023-05-12T03:35:14.844Z,2.00
2023-05-12T03:37:43.203Z,1.60
2023-05-12T03:40:18.482Z,1.97
2023-05-12T03:42:48.261Z,2.00
2023-05-12T03:45:17.999Z,2.40
2023-05-12T03:47:46.463Z,1.97
2023-05-12T03:50:15.108Z,2.20
2023-05-12T03:52:43.473Z,2.17
2023-05-12T03:55:12.007Z,2.23
2023-05-12T03:57:40.308Z,2.47
2023-05-12T04:00:10.353Z,2.53
2023-05-12T04:02:46.786Z,2.30
2023-05-12T04:05:16.240Z,2.40
2023-05-12T04:07:44.524Z,2.17
2023-05-12T04:10:13.007Z,2.20
2023-05-12T04:12:41.687Z,2.10
2023-05-12T04:15:11.453Z,2.10
2023-05-12T04:17:39.805Z,1.80
2023-05-12T04:20:11.568Z,2.23
2023-05-12T04:22:40.640Z,1.70
2023-05-12T04:25:10.657Z,2.00
2023-05-12T04:27:40.667Z,1.47
2023-05-12T04:30:11.644Z,1.67
2023-05-12T04:32:42.184Z,1.77
2023-05-12T04:35:12.520Z,1.60
2023-05-12T04:37:41.079Z,1.53
2023-05-12T04:40:11.378Z,1.17
2023-05-12T04:42:39.779Z,1.43
2023-05-12T04:45:12.025Z,1.30
2023-05-12T04:47:41.360Z,1.70
2023-05-12T04:50:12.593Z,1.60
2023-05-12T04:52:41.253Z,1.60
2023-05-12T04:55:10.968Z,1.37
2023-05-12T04:57:41.248Z,1.30
2023-05-12T05:00:13.159Z,1.23
2023-05-12T05:02:41.859Z,1.37
2023-05-12T05:05:12.399Z,1.50
2023-05-12T05:07:41.603Z,1.60
2023-05-12T05:10:11.042Z,1.23
2023-05-12T05:12:41.490Z,1.47
2023-05-12T05:15:12.106Z,1.30
2023-05-12T05:17:40.677Z,1.20
2023-05-12T05:20:15.399Z,1.50
2023-05-12T05:22:44.193Z,1.57
2023-05-12T05:25:13.530Z,1.30
2023-05-12T05:27:42.011Z,1.60
2023-05-12T05:30:11.902Z,1.40
2023-05-12T05:32:42.142Z,1.30
2023-05-12T05:35:13.331Z,1.37
2023-05-12T05:37:47.530Z,1.40
2023-05-12T05:40:16.228Z,1.40
2023-05-12T05:42:44.764Z,1.40
2023-05-12T05:45:13.433Z,1.40
2023-05-12T05:47:42.349Z,1.27
2023-05-12T05:50:13.404Z,1.20
2023-05-12T05:52:43.343Z,1.50
2023-05-12T05:55:11.895Z,1.47
2023-05-12T05:57:40.315Z,1.50
2023-05-12T06:00:10.314Z,1.47
2023-05-12T06:02:47.817Z,1.53
2023-05-12T06:05:22.049Z,1.63
2023-05-12T06:07:50.814Z,1.50
2023-05-12T06:10:19.380Z,1.50
2023-05-12T06:12:48.200Z,1.47
2023-05-12T06:15:16.671Z,1.57
2023-05-12T06:17:45.352Z,1.70
2023-05-12T06:20:14.412Z,1.50
2023-05-12T06:22:44.475Z,1.30
2023-05-12T06:25:12.995Z,1.40
2023-05-12T06:27:41.589Z,1.53
2023-05-12T06:30:12.561Z,1.60
2023-05-12T06:32:42.745Z,1.47
2023-05-12T06:35:11.770Z,1.43
2023-05-12T06:37:40.310Z,1.30
2023-05-12T06:40:11.427Z,1.20
2023-05-12T06:42:39.834Z,1.27
2023-05-12T06:45:13.495Z,1.13
2023-05-12T06:47:41.920Z,1.27
2023-05-12T06:50:11.698Z,1.37
2023-05-12T06:52:40.114Z,1.20
2023-05-12T06:55:10.738Z,1.40
2023-05-12T06:57:39.417Z,1.37
2023-05-12T07:00:10.740Z,1.43
2023-05-12T07:02:39.225Z,1.60
2023-05-12T07:05:08.730Z,1.13
2023-05-12T07:07:37.365Z,1.20
2023-05-12T07:10:07.568Z,1.27
2023-05-12T07:12:38.190Z,1.30
2023-05-12T07:15:08.799Z,1.17
2023-05-12T07:17:37.359Z,1.50
2023-05-12T07:20:07.245Z,1.30
2023-05-12T07:22:38.681Z,1.27
2023-05-12T07:25:08.742Z,1.20
2023-05-12T07:27:38.569Z,1.40
2023-05-12T07:30:08.644Z,1.43
2023-05-12T07:32:37.107Z,1.50
2023-05-12T07:35:07.277Z,1.37
2023-05-12T07:37:35.930Z,1.40
2023-05-12T07:40:04.804Z,1.30
2023-05-12T07:42:33.767Z,1.40
2023-05-12T07:45:04.014Z,1.50
2023-05-12T07:47:32.495Z,1.50
2023-05-12T07:50:00.960Z,1.63
2023-05-12T07:52:29.403Z,1.73
2023-05-12T07:54:58.638Z,1.60
2023-05-12T07:57:26.986Z,1.40
2023-05-12T07:59:55.432Z,1.80
2023-05-12T08:02:25.535Z,1.67
2023-05-12T08:04:53.914Z,1.50
2023-05-12T08:07:22.479Z,1.60
2023-05-12T08:09:51.066Z,1.70
2023-05-12T08:12:19.537Z,1.70
2023-05-12T08:14:48.387Z,1.43
2023-05-12T08:17:16.892Z,1.77
2023-05-12T08:19:46.987Z,1.50
2023-05-12T08:22:15.631Z,1.77
2023-05-12T08:24:44.464Z,1.70
2023-05-12T08:27:12.924Z,1.50
2023-05-12T08:29:41.332Z,1.70
2023-05-12T08:32:09.869Z,1.80
2023-05-12T08:34:38.568Z,1.50
2023-05-12T08:37:08.475Z,1.43
2023-05-12T08:39:37.082Z,1.33
2023-05-12T08:42:18.936Z,1.50
2023-05-12T08:44:48.503Z,1.40
2023-05-12T08:47:19.842Z,1.50
2023-05-12T08:49:55.986Z,1.60
2023-05-12T08:52:27.260Z,1.30
2023-05-12T08:54:56.945Z,1.50
2023-05-12T08:57:26.900Z,1.70
2023-05-12T08:59:59.576Z,1.60
2023-05-12T09:02:40.885Z,1.23
2023-05-12T09:05:13.429Z,1.33
2023-05-12T09:07:45.165Z,1.20
2023-05-12T09:10:32.845Z,1.40
2023-05-12T09:13:09.078Z,1.40
2023-05-12T09:15:42.055Z,1.17
2023-05-12T09:18:10.623Z,1.27
2023-05-12T09:20:39.341Z,1.00
2023-05-12T09:23:21.158Z,1.07
2023-05-12T09:26:01.793Z,1.30
2023-05-12T09:28:37.763Z,1.30
2023-05-12T09:31:26.106Z,1.23
2023-05-12T09:33:54.666Z,1.10
2023-05-12T09:36:25.807Z,1.27
2023-05-12T09:39:04.610Z,1.00
2023-05-12T09:41:36.137Z,0.90
2023-05-12T09:44:04.840Z,1.30
2023-05-12T09:46:33.614Z,1.40
2023-05-12T09:49:02.674Z,1.10
2023-05-12T09:51:32.402Z,1.40
2023-05-12T09:54:02.303Z,1.20
2023-05-12T09:56:33.772Z,1.40
2023-05-12T09:59:05.769Z,1.10
2023-05-12T10:01:34.712Z,1.50
2023-05-12T10:04:05.862Z,1.20
2023-05-12T10:06:39.389Z,1.20
2023-05-12T10:09:18.441Z,1.20
2023-05-12T10:11:48.909Z,1.20
2023-05-12T10:14:19.662Z,1.10
2023-05-12T10:16:48.975Z,1.20
2023-05-12T10:19:18.704Z,1.30
2023-05-12T10:21:48.450Z,1.70
2023-05-12T10:24:18.904Z,1.47
2023-05-12T10:26:47.759Z,1.50
2023-05-12T10:29:16.840Z,1.30
2023-05-12T10:31:46.948Z,1.67
2023-05-12T10:34:19.815Z,1.30
2023-05-12T10:36:50.176Z,1.60
2023-05-12T10:39:20.066Z,1.30
2023-05-12T10:41:51.002Z,1.33
2023-05-12T10:44:29.104Z,1.20
2023-05-12T10:47:00.808Z,1.20
2023-05-12T10:49:41.108Z,1.07
2023-05-12T10:52:12.025Z,1.00
2023-05-12T10:54:45.175Z,1.50
2023-05-12T10:57:18.227Z,1.40
2023-05-12T10:59:52.253Z,1.50
2023-05-12T11:02:27.524Z,1.40
2023-05-12T11:05:01.664Z,1.67
2023-05-12T11:07:35.406Z,1.60
2023-05-12T11:10:07.880Z,1.80
2023-05-12T11:12:37.242Z,1.40
2023-05-12T11:15:07.706Z,1.30
2023-05-12T11:17:41.021Z,1.50
2023-05-12T11:20:10.914Z,1.60
2023-05-12T11:22:43.681Z,1.47
2023-05-12T11:25:15.663Z,1.70
2023-05-12T11:27:51.267Z,1.63
2023-05-12T11:30:19.947Z,1.90
2023-05-12T11:32:48.557Z,1.90
2023-05-12T11:35:20.161Z,1.17
2023-05-12T11:37:48.706Z,1.60
2023-05-12T11:40:20.477Z,1.73
2023-05-12T11:42:52.238Z,1.80
2023-05-12T11:45:26.964Z,1.70
2023-05-12T11:48:08.994Z,1.63
2023-05-12T11:50:40.652Z,1.70
2023-05-12T11:53:14.915Z,1.80
2023-05-12T11:55:51.257Z,1.50
2023-05-12T11:58:22.771Z,1.60
2023-05-12T12:00:54.361Z,1.57
2023-05-12T12:03:22.875Z,1.50
2023-05-12T12:06:02.636Z,1.60
2023-05-12T12:08:31.828Z,1.80
2023-05-12T12:11:03.670Z,1.70
2023-05-12T12:13:32.329Z,1.60
2023-05-12T12:16:01.588Z,1.43
2023-05-12T12:18:30.233Z,1.40
2023-05-12T12:20:58.667Z,1.20
2023-05-12T12:23:27.187Z,1.40
2023-05-12T12:25:55.528Z,1.30
2023-05-12T12:28:25.397Z,1.47
2023-05-12T12:30:53.816Z,1.50
2023-05-12T12:33:22.520Z,1.50
2023-05-12T12:35:51.197Z,1.60
2023-05-12T12:38:19.704Z,1.37
2023-05-12T12:40:48.261Z,0.90
2023-05-12T12:43:16.971Z,1.47
2023-05-12T12:45:47.191Z,1.57
2023-05-12T12:48:15.586Z,1.20
2023-05-12T12:50:44.018Z,1.37
2023-05-12T12:53:12.931Z,1.40
2023-05-12T12:55:41.617Z,1.50
2023-05-12T12:58:10.269Z,1.50
2023-05-12T13:00:38.955Z,1.20
2023-05-12T13:03:08.885Z,1.20
2023-05-12T13:05:37.665Z,1.43
2023-05-12T13:08:06.740Z,1.20
2023-05-12T13:10:35.812Z,1.30
2023-05-12T13:13:04.284Z,1.20
2023-05-12T13:15:33.429Z,1.47
2023-05-12T13:18:02.274Z,1.30
2023-05-12T13:20:32.479Z,1.53
2023-05-12T13:23:00.891Z,1.40
2023-05-12T13:25:29.421Z,1.30
2023-05-12T13:27:57.898Z,1.20
2023-05-12T13:30:26.568Z,1.30
2023-05-12T13:32:55.120Z,1.20
2023-05-12T13:35:23.878Z,1.20
2023-05-12T13:37:54.522Z,1.30
2023-05-12T13:40:23.018Z,1.27
2023-05-12T13:42:51.273Z,1.27
2023-05-12T13:45:20.071Z,1.60
2023-05-12T13:47:48.728Z,1.50
2023-05-12T13:50:17.202Z,1.23
2023-05-12T13:52:47.581Z,1.20
2023-05-12T13:55:21.341Z,1.17
2023-05-12T13:57:50.563Z,1.40
2023-05-12T14:00:20.470Z,1.30
2023-05-12T14:02:49.262Z,1.47
2023-05-12T14:05:18.619Z,1.10
2023-05-12T14:07:47.263Z,1.37
2023-05-12T14:10:18.605Z,1.00
2023-05-12T14:12:47.960Z,1.20
2023-05-12T14:15:24.039Z,1.00
2023-05-12T14:17:58.495Z,1.17
2023-05-12T14:20:27.009Z,1.13
2023-05-12T14:22:55.826Z,1.40
2023-05-12T14:25:25.782Z,1.10
2023-05-12T14:27:54.501Z,1.17
2023-05-12T14:30:23.717Z,1.10
2023-05-12T14:32:53.312Z,0.97
2023-05-12T14:35:22.353Z,1.17
2023-05-12T14:37:51.257Z,1.07
2023-05-12T14:40:19.612Z,1.00
2023-05-12T14:42:49.662Z,1.20
2023-05-12T14:45:18.551Z,1.30
2023-05-12T14:47:47.434Z,1.03
2023-05-12T14:50:16.084Z,1.13
2023-05-12T14:52:44.430Z,1.00
2023-05-12T14:55:13.712Z,1.10
2023-05-12T14:57:43.541Z,1.30
2023-05-12T15:00:16.194Z,1.27
2023-05-12T15:02:45.943Z,1.10
2023-05-12T15:05:15.266Z,1.33
2023-05-12T15:07:44.178Z,1.20
2023-05-12T15:10:13.187Z,1.30
2023-05-12T15:12:41.594Z,1.40
2023-05-12T15:15:13.252Z,1.10
2023-05-12T15:17:41.721Z,1.20
2023-05-12T15:20:11.029Z,1.30
2023-05-12T15:22:39.990Z,1.30
2023-05-12T15:25:10.088Z,1.03
2023-05-12T15:27:38.866Z,1.30
2023-05-12T15:30:10.169Z,1.30
2023-05-12T15:32:42.216Z,1.20
2023-05-12T15:35:11.177Z,1.20
2023-05-12T15:37:39.597Z,1.33
2023-05-12T15:40:10.483Z,1.37
2023-05-12T15:42:38.889Z,1.47
2023-05-12T15:45:09.492Z,1.30
2023-05-12T15:47:38.055Z,1.20
2023-05-12T15:50:10.547Z,1.10
2023-05-12T15:52:38.943Z,1.03
2023-05-12T15:55:08.653Z,1.17
2023-05-12T15:57:37.116Z,1.07
2023-05-12T16:00:07.537Z,1.10
2023-05-12T16:02:41.481Z,1.13
2023-05-12T16:05:12.062Z,0.90
2023-05-12T16:07:40.980Z,1.00
2023-05-12T16:10:10.864Z,1.20
2023-05-12T16:12:39.264Z,1.20
2023-05-12T16:15:08.681Z,1.00
2023-05-12T16:17:37.401Z,1.13
2023-05-12T16:20:07.861Z,1.10
2023-05-12T16:22:37.642Z,1.30
2023-05-12T16:25:07.182Z,1.30
2023-05-12T16:27:36.748Z,1.00
2023-05-12T16:30:06.537Z,1.17
2023-05-12T16:32:34.990Z,1.13
2023-05-12T16:35:03.714Z,1.10
2023-05-12T16:37:32.405Z,1.10
2023-05-12T16:40:02.588Z,1.20
2023-05-12T16:42:31.191Z,1.17
2023-05-12T16:45:00.254Z,1.30
2023-05-12T16:47:29.600Z,1.20
2023-05-12T16:49:59.660Z,1.20
2023-05-12T16:52:28.461Z,1.10
2023-05-12T16:54:57.242Z,1.40
2023-05-12T16:57:27.599Z,1.20
2023-05-12T16:59:56.080Z,1.00
2023-05-12T17:02:24.592Z,1.13
2023-05-12T17:04:53.035Z,1.43
2023-05-12T17:07:21.680Z,1.10
2023-05-12T17:09:50.116Z,1.27
2023-05-12T17:12:18.612Z,1.20
2023-05-12T17:14:59.399Z,1.30
2023-05-12T17:17:35.560Z,1.20
2023-05-12T17:20:04.262Z,1.20
2023-05-12T17:22:34.910Z,1.20
2023-05-12T17:25:03.677Z,1.07
2023-05-12T17:27:31.994Z,1.30
2023-05-12T17:30:04.107Z,1.17
2023-05-12T17:32:32.790Z,1.30
2023-05-12T17:35:01.307Z,1.43
2023-05-12T17:37:30.343Z,1.20
2023-05-12T17:39:59.516Z,1.20
2023-05-12T17:42:31.285Z,1.13
2023-05-12T17:45:01.440Z,1.20
2023-05-12T17:47:30.239Z,1.10
2023-05-12T17:49:59.531Z,1.20
2023-05-12T17:52:28.515Z,1.10
2023-05-12T17:54:57.358Z,0.90
2023-05-12T17:57:25.766Z,0.90
2023-05-12T17:59:54.184Z,1.33
2023-05-12T18:02:24.322Z,1.53
2023-05-12T18:04:52.762Z,1.37
2023-05-12T18:07:22.350Z,1.43
2023-05-12T18:09:50.860Z,1.67
2023-05-12T18:12:19.305Z,1.77
2023-05-12T18:14:47.752Z,1.67
2023-05-12T18:17:16.777Z,1.40
2023-05-12T18:19:46.849Z,1.50
2023-05-12T18:22:16.918Z,1.50
2023-05-12T18:24:45.941Z,1.60
2023-05-12T18:27:15.153Z,1.17
2023-05-12T18:29:43.454Z,1.10
2023-05-12T18:32:12.013Z,1.53
2023-05-12T18:34:41.461Z,1.50
2023-05-12T18:37:15.480Z,1.40
2023-05-12T18:39:44.367Z,1.27
2023-05-12T18:42:12.902Z,1.30
2023-05-12T18:44:42.265Z,1.17
2023-05-12T18:47:10.806Z,1.37
2023-05-12T18:49:39.534Z,1.53
2023-05-12T18:52:07.916Z,1.40
2023-05-12T18:54:39.750Z,1.30
2023-05-12T18:57:08.152Z,1.30
2023-05-12T18:59:36.772Z,1.33
2023-05-12T19:02:05.462Z,1.20
2023-05-12T19:04:34.722Z,1.27
2023-05-12T19:07:03.131Z,1.20
2023-05-12T19:09:31.591Z,1.27
2023-05-12T19:12:03.556Z,1.43
2023-05-12T19:14:32.161Z,1.60
2023-05-12T19:17:00.517Z,1.20
2023-05-12T19:19:29.093Z,1.60
2023-05-12T19:21:57.542Z,1.40
2023-05-12T19:24:27.331Z,1.37
2023-05-12T19:26:55.776Z,1.80
2023-05-12T19:29:26.160Z,1.70
2023-05-12T19:31:54.699Z,1.53
2023-05-12T19:34:23.930Z,1.50
2023-05-12T19:36:53.043Z,1.50
2023-05-12T19:39:21.465Z,1.43
2023-05-12T19:41:51.641Z,1.60
2023-05-12T19:44:20.267Z,1.43
2023-05-12T19:46:50.964Z,1.90
2023-05-12T19:49:19.525Z,1.70
2023-05-12T19:51:48.663Z,1.53
2023-05-12T19:54:17.246Z,1.60
2023-05-12T19:56:45.980Z,1.83
2023-05-12T19:59:14.741Z,1.70
2023-05-12T20:01:43.354Z,1.80
2023-05-12T20:04:13.783Z,1.80
2023-05-12T20:06:42.552Z,1.57
2023-05-12T20:09:11.072Z,1.80
2023-05-12T20:11:39.617Z,2.20
2023-05-12T20:14:08.614Z,2.40
2023-05-12T20:16:38.360Z,2.00
2023-05-12T20:19:06.912Z,2.07
2023-05-12T20:21:36.772Z,2.30
2023-05-12T20:24:05.935Z,2.00
2023-05-12T20:26:34.632Z,2.10
2023-05-12T20:29:03.145Z,2.20
2023-05-12T20:31:31.720Z,1.90
2023-05-12T20:34:01.309Z,2.30
2023-05-12T20:36:29.809Z,2.00
2023-05-12T20:39:00.404Z,2.20
2023-05-12T20:41:28.883Z,2.30
2023-05-12T20:43:57.293Z,1.83
2023-05-12T20:46:26.323Z,2.30
2023-05-12T20:48:54.806Z,2.10
2023-05-12T20:51:23.529Z,2.10
2023-05-12T20:53:52.977Z,2.10
2023-05-12T20:56:23.822Z,2.00
2023-05-12T20:58:52.529Z,2.17
2023-05-12T21:01:20.956Z,2.13
2023-05-12T21:03:49.640Z,2.47
2023-05-12T21:06:18.547Z,2.50
2023-05-12T21:08:47.305Z,2.70
2023-05-12T21:11:16.819Z,2.13
2023-05-12T21:13:48.291Z,2.40
2023-05-12T21:16:17.121Z,2.23
2023-05-12T21:18:46.365Z,2.20
2023-05-12T21:21:14.969Z,2.40
2023-05-12T21:23:43.687Z,2.30
2023-05-12T21:26:12.688Z,2.50
2023-05-12T21:28:41.268Z,2.50
2023-05-12T21:31:11.096Z,2.50
2023-05-12T21:33:39.777Z,2.57
2023-05-12T21:36:09.710Z,2.43
2023-05-12T21:38:38.330Z,2.50
2023-05-12T21:41:06.720Z,2.20
2023-05-12T21:43:35.466Z,2.43
2023-05-12T21:46:04.430Z,2.53
2023-05-12T21:48:35.086Z,2.57
2023-05-12T21:51:07.911Z,2.53
2023-05-12T21:53:36.353Z,2.37
2023-05-12T21:56:05.016Z,2.60
2023-05-12T21:58:33.454Z,2.93
2023-05-12T22:01:01.858Z,2.40
2023-05-12T22:03:30.420Z,2.60
2023-05-12T22:06:00.424Z,2.67
2023-05-12T22:08:29.176Z,2.40
2023-05-12T22:10:58.093Z,2.80
2023-05-12T22:13:27.023Z,2.67
2023-05-12T22:15:55.818Z,2.70
2023-05-12T22:18:24.623Z,2.50
2023-05-12T22:20:53.520Z,2.73
2023-05-12T22:23:23.575Z,2.60
2023-05-12T22:25:51.988Z,2.50
2023-05-12T22:28:20.353Z,2.50
2023-05-12T22:30:49.169Z,2.33
2023-05-12T22:33:17.860Z,2.57
2023-05-12T22:35:46.269Z,2.63
2023-05-12T22:38:14.522Z,2.93
2023-05-12T22:40:44.397Z,2.70
2023-05-12T22:43:13.862Z,2.87
2023-05-12T22:45:43.007Z,2.93
2023-05-12T22:48:11.452Z,2.97
2023-05-12T22:50:40.271Z,2.90
2023-05-12T22:53:08.969Z,2.83
2023-05-12T22:55:37.280Z,3.00
2023-05-12T22:58:07.106Z,3.17
2023-05-12T23:00:35.542Z,2.83
2023-05-12T23:03:04.710Z,2.90
2023-05-12T23:05:33.139Z,3.20
2023-05-12T23:08:04.678Z,3.07
2023-05-12T23:10:33.049Z,2.97
2023-05-12T23:13:01.456Z,2.83
2023-05-12T23:15:31.270Z,3.20
2023-05-12T23:17:59.750Z,2.87
2023-05-12T23:20:28.108Z,3.20
2023-05-12T23:22:56.453Z,3.23
2023-05-12T23:25:25.029Z,2.53
2023-05-12T23:27:53.499Z,3.00
2023-05-12T23:30:21.954Z,2.87
2023-05-12T23:32:52.032Z,3.10
2023-05-12T23:35:20.557Z,2.83
2023-05-12T23:37:49.270Z,3.17
2023-05-12T23:40:17.652Z,3.23
2023-05-12T23:42:46.140Z,2.90
2023-05-12T23:45:15.676Z,3.17
2023-05-12T23:47:44.241Z,2.77
2023-05-12T23:50:14.134Z,2.97
2023-05-12T23:52:42.499Z,2.90
2023-05-12T23:55:11.693Z,2.80
2023-05-12T23:57:40.281Z,3.00
